Time;durP1;ratioP1;P1;durP2;ratioP2;P2;SDS_P1;SDS_P2;PMS_P1;PMS_P2;Temp;Humidity;BMP_temperature;BMP_pressure;BME280_temperature;BME280_humidity;BME280_pressure;Samples;Min_cycle;Max_cycle;Signal;HPM_P1;HPM_P2
2022/07/14 00:01:22;;;;;;;1.90;1.60;;;;;;;20.22;70.44;100805.06;5035484;28;20220;-73
2022/07/14 00:03:49;;;;;;;1.43;1.33;;;;;;;20.21;70.53;100809.50;5038589;28;20602;-73
2022/07/14 00:06:17;;;;;;;1.80;1.70;;;;;;;20.21;71.06;100809.50;5031586;28;20214;-73
2022/07/14 00:08:43;;;;;;;1.63;1.53;;;;;;;20.20;70.73;100810.44;5038457;28;20585;-73
2022/07/14 00:11:11;;;;;;;1.87;1.53;;;;;;;20.20;71.99;100807.81;5033880;28;20208;-73
2022/07/14 00:13:37;;;;;;;1.57;1.47;;;;;;;20.21;72.02;100809.50;5033989;28;20333;-73
2022/07/14 00:16:05;;;;;;;1.40;1.30;;;;;;;20.19;71.71;100811.41;5027348;28;20274;-75
2022/07/14 00:18:31;;;;;;;1.50;1.40;;;;;;;20.20;71.95;100812.25;5027976;28;20283;-75
2022/07/14 00:20:57;;;;;;;2.87;1.70;;;;;;;20.20;72.05;100813.09;5027514;28;20716;-75
2022/07/14 00:23:25;;;;;;;1.63;1.53;;;;;;;20.19;71.59;100811.41;5032165;28;20251;-75
2022/07/14 00:25:52;;;;;;;1.80;1.70;;;;;;;20.19;71.83;100810.53;5034426;28;20286;-75
2022/07/14 00:28:18;;;;;;;2.97;1.50;;;;;;;20.18;72.36;100811.50;5032689;28;20223;-75
2022/07/14 00:30:45;;;;;;;1.90;1.70;;;;;;;20.17;71.95;100817.75;5034176;28;20203;-76
2022/07/14 00:33:11;;;;;;;1.97;1.50;;;;;;;20.16;72.87;100818.69;5033981;28;20567;-76
2022/07/14 00:35:38;;;;;;;3.00;1.60;;;;;;;20.16;73.00;100819.53;5017832;28;20244;-75
2022/07/14 00:38:05;;;;;;;1.67;1.53;;;;;;;20.16;73.56;100813.41;5028731;28;20517;-75
2022/07/14 00:40:33;;;;;;;2.93;1.80;;;;;;;20.15;73.67;100812.53;5010207;28;20203;-75
2022/07/14 00:42:59;;;;;;;1.87;1.70;;;;;;;20.14;73.63;100817.91;5024726;28;20218;-75
2022/07/14 00:45:26;;;;;;;1.60;1.50;;;;;;;20.15;73.17;100819.63;5027353;28;20297;-76
2022/07/14 00:47:52;;;;;;;1.73;1.63;;;;;;;20.14;73.43;100821.44;5038013;28;20199;-73
2022/07/14 00:50:20;;;;;;;1.87;1.70;;;;;;;20.16;73.84;100826.66;5028886;28;20234;-73
2022/07/14 00:52:48;;;;;;;1.70;1.60;;;;;;;20.16;74.42;100819.53;5014015;28;20227;-73
2022/07/14 00:55:15;;;;;;;2.13;1.83;;;;;;;20.19;73.97;100823.78;5012864;28;20289;-73
2022/07/14 00:57:43;;;;;;;2.87;1.83;;;;;;;20.21;73.68;100828.03;5032498;28;20215;-73
2022/07/14 01:00:13;;;;;;;1.93;1.70;;;;;;;20.22;73.63;100819.13;5016384;28;20188;-73
2022/07/14 01:02:40;;;;;;;1.80;1.60;;;;;;;20.22;74.04;100813.84;5033967;28;20243;-73
2022/07/14 01:05:08;;;;;;;4.27;1.97;;;;;;;20.20;73.10;100817.56;5026173;28;20223;-73
2022/07/14 01:07:34;;;;;;;2.10;1.73;;;;;;;20.18;74.02;100822.94;5023873;28;20215;-73
2022/07/14 01:10:01;;;;;;;2.33;1.73;;;;;;;20.16;73.26;100824.84;5014363;28;20219;-73
2022/07/14 01:12:27;;;;;;;1.73;1.63;;;;;;;20.13;74.21;100827.66;5017861;28;20227;-73
2022/07/14 01:14:55;;;;;;;1.80;1.70;;;;;;;20.13;74.38;100830.31;5018711;28;20226;-73
2022/07/14 01:17:22;;;;;;;1.70;1.60;;;;;;;20.12;74.70;100831.28;5033207;28;20294;-73
2022/07/14 01:19:48;;;;;;;1.73;1.63;;;;;;;20.14;73.65;100824.09;5014998;28;20208;-73
2022/07/14 01:22:16;;;;;;;1.67;1.50;;;;;;;20.13;74.22;100817.09;5013641;28;20589;-73
2022/07/14 01:24:43;;;;;;;1.77;1.67;;;;;;;20.14;74.07;100820.56;5031176;28;20212;-73
2022/07/14 01:27:09;;;;;;;1.70;1.60;;;;;;;20.15;74.30;100824.94;5012759;28;20219;-73
2022/07/14 01:29:36;;;;;;;1.80;1.60;;;;;;;20.15;73.80;100822.28;5015825;28;20278;-73
2022/07/14 01:32:04;;;;;;;2.00;1.80;;;;;;;20.18;73.90;100819.44;5013911;28;20223;-73
2022/07/14 01:34:30;;;;;;;2.60;1.77;;;;;;;20.18;74.19;100828.22;5027721;28;20199;-73
2022/07/14 01:36:57;;;;;;;1.70;1.60;;;;;;;20.20;74.12;100833.44;5031929;28;21117;-73
2022/07/14 01:39:25;;;;;;;2.07;1.80;;;;;;;20.20;74.22;100831.63;5028529;28;20647;-73
2022/07/14 01:41:51;;;;;;;3.23;1.90;;;;;;;20.20;73.82;100831.63;5011009;28;20223;-73
2022/07/14 01:44:17;;;;;;;1.60;1.50;;;;;;;20.19;74.01;100835.25;5014639;28;20199;-73
2022/07/14 01:46:44;;;;;;;2.03;1.83;;;;;;;20.18;73.42;100833.53;5021266;28;20219;-73
2022/07/14 01:49:10;;;;;;;2.10;1.63;;;;;;;20.16;73.77;100831.94;5017556;28;20211;-72
2022/07/14 01:51:37;;;;;;;1.87;1.67;;;;;;;20.13;74.09;100825.03;5011828;28;20228;-73
2022/07/14 01:54:05;;;;;;;1.93;1.53;;;;;;;20.11;74.42;100828.72;5028113;28;20608;-73
2022/07/14 01:56:39;;;;;;;3.43;1.40;;;;;;;20.10;73.81;100835.78;5020605;28;20199;-73
2022/07/14 01:59:06;;;;;;;2.63;1.60;;;;;;;20.09;74.33;100831.47;5002019;28;20243;-73
2022/07/14 02:01:41;;;;;;;2.37;1.83;;;;;;;20.08;73.94;100836.84;5033857;28;20235;-72
2022/07/14 02:04:29;;;;;;;2.10;1.90;;;;;;;20.05;74.75;100837.88;5028853;28;20279;-73
2022/07/14 02:06:56;;;;;;;2.20;1.60;;;;;;;20.03;74.91;100839.78;5032348;28;20195;-73
2022/07/14 02:12:33;;;;;;;2.83;2.13;;;;;;;20.03;75.29;100845.06;5016523;28;20662;-73
2022/07/14 02:14:59;;;;;;;1.90;1.60;;;;;;;19.99;74.87;100849.69;5030562;28;20246;-73
2022/07/14 02:17:25;;;;;;;1.87;1.70;;;;;;;19.99;74.53;100848.84;5026321;28;20201;-73
2022/07/14 02:19:52;;;;;;;2.17;1.93;;;;;;;19.98;74.72;100861.25;5019763;28;20199;-73
2022/07/14 02:22:20;;;;;;;1.93;1.73;;;;;;;19.97;74.03;100858.69;5015434;28;20707;-73
2022/07/14 02:24:47;;;;;;;2.23;1.70;;;;;;;19.97;74.34;100858.69;5011589;28;20273;-73
2022/07/14 02:27:13;;;;;;;2.07;1.47;;;;;;;19.95;74.22;100852.66;5012580;28;20206;-73
2022/07/14 02:29:41;;;;;;;2.60;2.00;;;;;;;19.94;73.59;100857.06;5033536;28;20601;-73
2022/07/14 02:32:08;;;;;;;2.10;1.90;;;;;;;19.96;73.75;100857.81;5029987;28;20697;-73
2022/07/14 02:34:34;;;;;;;3.57;1.80;;;;;;;19.93;74.52;100859.81;5026713;28;20599;-73
2022/07/14 02:37:01;;;;;;;1.77;1.53;;;;;;;19.91;74.69;100857.28;5013077;28;20692;-73
2022/07/14 02:39:27;;;;;;;1.97;1.80;;;;;;;19.86;74.52;100860.19;5013851;28;20218;-73
2022/07/14 02:41:54;;;;;;;2.17;1.80;;;;;;;19.84;74.61;100864.75;5029418;28;21007;-73
2022/07/14 02:44:20;;;;;;;2.50;1.97;;;;;;;19.85;74.43;100868.22;5010615;28;20227;-73
2022/07/14 02:46:48;;;;;;;1.70;1.60;;;;;;;19.83;74.01;100868.31;5002579;28;20218;-73
2022/07/14 02:49:16;;;;;;;1.83;1.70;;;;;;;19.80;74.72;100868.50;5011006;28;20226;-73
2022/07/14 02:51:43;;;;;;;2.17;1.53;;;;;;;19.78;74.29;100859.81;5007656;28;20456;-73
2022/07/14 02:54:11;;;;;;;2.70;1.87;;;;;;;19.79;74.44;100866.81;5024166;28;20216;-73
2022/07/14 02:56:38;;;;;;;2.07;1.87;;;;;;;19.76;74.97;100861.69;5013298;28;20211;-73
2022/07/14 02:59:06;;;;;;;2.43;1.90;;;;;;;19.74;74.78;100868.88;5011933;28;20580;-72
2022/07/14 03:01:33;;;;;;;2.53;1.70;;;;;;;19.70;76.07;100880.56;5023388;28;20675;-73
2022/07/14 03:04:01;;;;;;;2.53;1.60;;;;;;;19.66;75.26;100874.63;5012691;28;20592;-73
2022/07/14 03:06:27;;;;;;;1.57;1.47;;;;;;;19.64;75.70;100873.00;5016099;28;20322;-73
2022/07/14 03:08:54;;;;;;;2.33;1.77;;;;;;;19.63;74.85;100876.56;5003276;28;20702;-73
2022/07/14 03:11:21;;;;;;;2.37;1.90;;;;;;;19.63;75.30;100881.84;5012032;28;20693;-73
2022/07/14 03:13:47;;;;;;;3.27;1.60;;;;;;;19.61;74.46;100886.41;5013869;28;20226;-73
2022/07/14 03:16:17;;;;;;;2.53;1.80;;;;;;;19.63;75.43;100884.50;5009602;28;20208;-73
2022/07/14 03:18:47;;;;;;;1.40;1.30;;;;;;;19.60;75.31;100884.72;5008631;28;20208;-73
2022/07/14 03:21:14;;;;;;;2.10;1.90;;;;;;;19.56;75.20;100881.41;5009771;28;20295;-73
2022/07/14 03:23:46;;;;;;;2.60;1.80;;;;;;;19.49;76.08;100895.94;5007459;28;20583;-73
2022/07/14 03:26:18;;;;;;;1.67;1.57;;;;;;;19.47;75.80;100897.78;5009062;28;20199;-73
2022/07/14 03:28:44;;;;;;;2.73;1.30;;;;;;;19.46;75.90;100901.41;5024900;28;20480;-73
2022/07/14 03:31:11;;;;;;;1.70;1.60;;;;;;;19.43;75.58;100893.63;5012103;28;20738;-73
2022/07/14 03:33:38;;;;;;;1.83;1.70;;;;;;;19.41;75.75;100904.28;5027774;28;20613;-73
2022/07/14 03:36:06;;;;;;;1.60;1.50;;;;;;;19.36;76.17;100903.72;5017495;28;20195;-73
2022/07/14 03:38:36;;;;;;;1.87;1.60;;;;;;;19.37;77.92;100904.59;5019800;28;20573;-73
2022/07/14 03:41:03;;;;;;;1.70;1.60;;;;;;;19.31;77.04;100911.06;5009320;28;20196;-73
2022/07/14 03:43:31;;;;;;;1.80;1.70;;;;;;;19.31;76.68;100905.78;5017877;28;20290;-73
2022/07/14 03:46:00;;;;;;;1.63;1.53;;;;;;;19.27;76.81;100912.19;5016310;28;20281;-73
2022/07/14 03:48:27;;;;;;;1.80;1.60;;;;;;;19.23;76.41;100913.31;5015204;28;20214;-73
2022/07/14 03:51:00;;;;;;;2.10;1.63;;;;;;;19.23;77.04;100910.69;5010819;28;20228;-73
2022/07/14 03:53:29;;;;;;;1.60;1.50;;;;;;;19.21;77.24;100917.84;5012412;28;20298;-73
2022/07/14 03:55:57;;;;;;;1.70;1.53;;;;;;;19.23;77.37;100910.69;5027436;28;20687;-73
2022/07/14 03:58:25;;;;;;;1.87;1.50;;;;;;;19.25;77.69;100925.50;5013138;28;20643;-74
2022/07/14 04:00:52;;;;;;;2.80;1.63;;;;;;;19.25;77.38;100914.06;5017144;28;20948;-73
2022/07/14 04:03:19;;;;;;;2.20;1.77;;;;;;;19.23;77.25;100919.44;5032180;23;20235;-72
2022/07/14 04:05:46;;;;;;;1.60;1.47;;;;;;;19.22;78.44;100928.31;5008875;28;20251;-72
2022/07/14 04:08:16;;;;;;;1.83;1.67;;;;;;;19.22;77.79;100927.47;5009205;28;20665;-72
2022/07/14 04:10:46;;;;;;;4.20;1.70;;;;;;;19.16;77.57;100928.66;5014635;28;20269;-72
2022/07/14 04:13:14;;;;;;;2.17;1.70;;;;;;;19.15;77.67;100932.25;4991359;28;20235;-72
2022/07/14 04:15:41;;;;;;;3.30;1.37;;;;;;;19.19;78.69;100925.84;4990516;28;20205;-72
2022/07/14 04:18:08;;;;;;;1.50;1.37;;;;;;;19.19;78.75;100930.28;4999811;28;20236;-71
2022/07/14 04:20:37;;;;;;;1.70;1.50;;;;;;;19.14;78.82;100935.84;4988088;28;20197;-72
2022/07/14 04:23:04;;;;;;;1.90;1.70;;;;;;;19.14;77.91;100921.75;5005525;28;20224;-72
2022/07/14 04:25:31;;;;;;;1.53;1.33;;;;;;;19.16;79.60;100930.47;5013613;28;20215;-72
2022/07/14 04:27:57;;;;;;;1.33;1.23;;;;;;;19.10;79.56;100927.25;4988292;28;20205;-72
2022/07/14 04:30:25;;;;;;;1.70;1.40;;;;;;;19.10;78.57;100929.00;4989460;28;20209;-72
2022/07/14 04:32:53;;;;;;;1.90;1.60;;;;;;;19.15;78.86;100940.16;4985089;28;20224;-72
2022/07/14 04:35:20;;;;;;;1.40;1.30;;;;;;;19.22;78.46;100954.72;4989501;28;20689;-72
2022/07/14 04:37:46;;;;;;;1.97;1.80;;;;;;;19.22;79.08;100938.88;5005417;28;20200;-72
2022/07/14 04:40:24;;;;;;;1.57;1.47;;;;;;;19.30;78.75;100941.09;4982709;28;20696;-71
2022/07/14 04:42:50;;;;;;;1.40;1.30;;;;;;;19.30;78.57;100949.88;4983470;28;20592;-71
2022/07/14 04:45:18;;;;;;;1.53;1.40;;;;;;;19.33;78.66;100947.97;4983277;28;20205;-71
2022/07/14 04:47:47;;;;;;;5.03;1.50;;;;;;;19.32;77.88;100947.13;4982532;28;20310;-71
2022/07/14 04:52:59;;;;;;;1.50;1.23;;;;;;;19.57;77.52;100945.72;4983992;28;20237;-71
2022/07/14 04:55:41;;;;;;;1.70;1.43;;;;;;;19.51;77.34;100946.94;4997737;28;20834;-71
2022/07/14 04:58:15;;;;;;;1.50;1.40;;;;;;;19.42;76.39;100958.06;4987751;28;20203;-71
2022/07/14 05:00:42;;;;;;;1.53;1.27;;;;;;;19.45;76.38;100952.56;4983545;28;20201;-71
2022/07/14 05:03:10;;;;;;;1.20;1.10;;;;;;;19.52;76.86;100953.91;5003249;28;20243;-71
2022/07/14 05:05:36;;;;;;;1.93;1.17;;;;;;;19.55;76.50;100952.88;4986942;28;20204;-71
2022/07/14 05:08:03;;;;;;;1.60;1.50;;;;;;;19.55;76.76;100956.38;5003129;28;20212;-71
2022/07/14 05:10:38;;;;;;;1.73;1.10;;;;;;;19.56;76.79;100951.94;4997911;28;20212;-72
2022/07/14 05:13:05;;;;;;;1.10;1.00;;;;;;;19.46;75.79;100954.28;4999903;28;20224;-71
2022/07/14 05:15:32;;;;;;;1.40;1.30;;;;;;;19.52;76.29;100964.47;4994651;28;20414;-71
2022/07/14 05:17:59;;;;;;;1.30;1.20;;;;;;;19.57;75.88;100959.78;5006556;28;20201;-71
2022/07/14 05:20:27;;;;;;;3.10;1.07;;;;;;;19.57;74.01;100961.56;4998317;28;20586;-71
2022/07/14 05:22:54;;;;;;;1.60;1.17;;;;;;;19.75;74.46;100957.91;4989271;28;20269;-71
2022/07/14 05:25:20;;;;;;;3.60;1.60;;;;;;;19.87;73.21;100964.22;4983550;28;20213;-71
2022/07/14 05:27:47;;;;;;;2.07;1.50;;;;;;;19.85;73.11;100963.47;5007868;28;20208;-71
2022/07/14 05:30:24;;;;;;;1.40;1.23;;;;;;;19.92;73.44;100959.50;4985784;28;20212;-71
2022/07/14 05:32:50;;;;;;;2.10;1.30;;;;;;;19.90;73.12;100957.91;4989176;28;20458;-72
2022/07/14 05:35:16;;;;;;;1.30;1.20;;;;;;;20.01;73.71;100958.09;4994423;28;20330;-71
2022/07/14 05:37:44;;;;;;;1.30;1.20;;;;;;;20.07;72.98;100948.94;4991756;28;20262;-72
2022/07/14 05:40:11;;;;;;;1.13;1.03;;;;;;;20.19;72.18;100957.00;5003815;28;20783;-71
2022/07/14 05:42:38;;;;;;;1.30;1.10;;;;;;;20.38;75.15;100959.34;4993445;28;20229;-72
2022/07/14 05:45:07;;;;;;;2.87;1.60;;;;;;;20.29;71.90;100962.56;5000961;28;20201;-72
2022/07/14 05:47:34;;;;;;;1.83;1.40;;;;;;;20.17;72.08;100958.03;4997032;28;20200;-71
2022/07/14 05:50:01;;;;;;;2.43;1.23;;;;;;;20.12;73.12;100960.97;4986885;28;20674;-72
2022/07/14 05:52:30;;;;;;;1.33;1.23;;;;;;;20.02;73.44;100965.13;4993576;28;20231;-71
2022/07/14 05:54:59;;;;;;;2.30;1.30;;;;;;;19.92;73.64;100966.59;4988022;28;20673;-71
2022/07/14 05:57:28;;;;;;;1.30;1.20;;;;;;;19.90;73.53;100965.84;5012061;28;20646;-71
2022/07/14 05:59:55;;;;;;;1.77;1.40;;;;;;;19.82;73.56;100964.53;4992312;28;20211;-71
2022/07/14 06:02:21;;;;;;;1.40;1.30;;;;;;;19.88;73.28;100965.09;5008118;28;20235;-71
2022/07/14 06:04:48;;;;;;;1.97;1.50;;;;;;;20.07;72.80;100968.34;4987928;28;20383;-71
2022/07/14 06:07:14;;;;;;;1.50;1.40;;;;;;;19.99;72.34;100979.38;4981736;28;20247;-71
2022/07/14 06:09:47;;;;;;;1.20;1.10;;;;;;;20.03;72.78;100975.63;5001062;28;20197;-72
2022/07/14 06:12:16;;;;;;;1.73;1.20;;;;;;;20.01;73.57;100977.47;4987198;28;20211;-72
2022/07/14 06:14:45;;;;;;;1.37;1.27;;;;;;;19.97;72.85;100975.13;4985443;28;20668;-72
2022/07/14 06:17:12;;;;;;;1.77;1.50;;;;;;;20.00;72.86;100978.44;4992188;28;20268;-71
2022/07/14 06:19:40;;;;;;;1.37;1.27;;;;;;;20.15;72.48;100986.38;4989395;28;20204;-71
2022/07/14 06:22:07;;;;;;;4.40;1.20;;;;;;;20.07;71.85;100980.69;4989880;28;20216;-71
2022/07/14 06:24:36;;;;;;;1.80;1.30;;;;;;;19.98;72.04;100977.69;5005005;28;20711;-72
2022/07/14 06:27:03;;;;;;;2.23;1.20;;;;;;;19.96;73.69;100976.91;5010294;28;20227;-72
2022/07/14 06:29:32;;;;;;;1.73;1.23;;;;;;;19.86;72.88;100981.06;5009767;28;20208;-72
2022/07/14 06:31:59;;;;;;;2.43;1.47;;;;;;;19.92;73.65;100977.19;5011358;28;20310;-72
2022/07/14 06:34:25;;;;;;;1.30;1.20;;;;;;;19.95;72.58;100991.09;4989654;28;20215;-72
2022/07/14 06:37:00;;;;;;;2.00;1.17;;;;;;;20.18;74.48;100983.56;4998695;28;20214;-72
2022/07/14 06:39:27;;;;;;;2.60;1.40;;;;;;;20.23;71.87;100984.13;4988462;28;20211;-72
2022/07/14 06:41:54;;;;;;;1.40;1.30;;;;;;;20.34;70.95;100989.63;4986369;28;20222;-72
2022/07/14 06:44:26;;;;;;;1.93;1.10;;;;;;;20.30;70.83;100984.59;5004049;28;20740;-72
2022/07/14 06:46:55;;;;;;;1.57;1.30;;;;;;;20.19;70.62;100986.13;4987028;28;20205;-71
2022/07/14 06:49:22;;;;;;;1.60;1.20;;;;;;;20.16;70.24;100988.09;5009420;28;20262;-72
2022/07/14 06:51:49;;;;;;;1.57;1.47;;;;;;;20.07;71.06;100981.56;5014514;28;20228;-71
2022/07/14 06:54:15;;;;;;;1.17;1.07;;;;;;;20.21;72.31;100988.66;5008382;28;20255;-72
2022/07/14 06:56:42;;;;;;;4.10;1.40;;;;;;;20.47;71.74;100983.56;5007978;28;20200;-72
2022/07/14 06:59:08;;;;;;;1.30;1.20;;;;;;;20.63;69.96;100986.97;5010369;28;20216;-72
2022/07/14 07:01:35;;;;;;;3.03;1.43;;;;;;;20.63;68.94;100986.13;5014049;28;20216;-72
2022/07/14 07:04:03;;;;;;;1.23;1.10;;;;;;;20.49;68.68;100982.53;5011309;28;20318;-72
2022/07/14 07:06:43;;;;;;;1.43;1.23;;;;;;;20.64;67.90;100986.03;5013050;28;20235;-72
2022/07/14 07:09:10;;;;;;;1.20;1.10;;;;;;;20.61;67.17;100975.59;5007190;28;20210;-72
2022/07/14 07:11:36;;;;;;;2.40;1.40;;;;;;;20.61;68.20;100973.84;5010620;28;20591;-72
2022/07/14 07:14:02;;;;;;;1.80;1.17;;;;;;;20.62;68.66;100985.28;5008590;28;20472;-72
2022/07/14 07:16:29;;;;;;;1.87;1.50;;;;;;;20.55;68.71;100979.50;5016067;28;20209;-72
2022/07/14 07:18:55;;;;;;;1.60;1.23;;;;;;;20.61;69.41;100978.25;5010844;28;20204;-72
2022/07/14 07:21:23;;;;;;;3.77;1.07;;;;;;;20.77;71.81;100976.38;5012025;28;20196;-72
2022/07/14 07:23:49;;;;;;;1.30;1.20;;;;;;;20.95;68.27;100974.34;5015258;28;20223;-72
2022/07/14 07:26:17;;;;;;;3.10;1.30;;;;;;;20.82;66.84;100969.94;5007709;28;20884;-72
2022/07/14 07:28:44;;;;;;;1.47;1.10;;;;;;;20.92;67.23;100963.09;5005402;28;20208;-72
2022/07/14 07:31:10;;;;;;;1.20;1.10;;;;;;;20.80;66.14;100970.88;5011915;28;20549;-72
2022/07/14 07:33:37;;;;;;;1.77;1.00;;;;;;;20.94;67.51;100962.03;5010689;28;20689;-72
2022/07/14 07:36:04;;;;;;;1.17;0.90;;;;;;;21.06;66.66;100971.00;5015033;28;20204;-72
2022/07/14 07:38:31;;;;;;;1.50;1.10;;;;;;;20.98;65.39;100968.88;5016636;28;20208;-71
2022/07/14 07:41:00;;;;;;;1.50;1.40;;;;;;;20.98;65.47;100968.00;5012104;28;20570;-72
2022/07/14 07:43:27;;;;;;;4.10;1.20;;;;;;;20.95;64.85;100965.56;5012733;28;20696;-72
2022/07/14 07:45:53;;;;;;;1.37;1.00;;;;;;;21.11;67.60;100954.81;5009496;28;20216;-72
2022/07/14 07:48:20;;;;;;;1.10;0.90;;;;;;;21.18;66.48;100964.91;5012242;28;20207;-72
2022/07/14 07:50:47;;;;;;;2.43;1.20;;;;;;;21.21;64.67;100971.78;5012592;28;20586;-72
2022/07/14 07:53:14;;;;;;;1.00;0.90;;;;;;;21.21;63.74;100963.00;5005473;28;20726;-72
2022/07/14 07:55:42;;;;;;;1.50;1.03;;;;;;;21.18;64.54;100964.91;4998565;28;20417;-72
2022/07/14 07:58:09;;;;;;;1.20;1.10;;;;;;;21.13;62.83;100963.50;5001447;28;20563;-72
2022/07/14 08:00:35;;;;;;;1.57;1.17;;;;;;;21.27;63.21;100958.16;5015809;28;20576;-72
2022/07/14 08:03:03;;;;;;;1.10;0.97;;;;;;;21.33;64.55;100960.38;5014675;28;20241;-72
2022/07/14 08:05:30;;;;;;;0.97;0.93;;;;;;;21.45;65.11;100957.88;5008143;28;20203;-72
2022/07/14 08:07:57;;;;;;;1.90;1.10;;;;;;;21.40;61.79;100958.19;5007837;28;20211;-72
2022/07/14 08:10:24;;;;;;;1.90;0.97;;;;;;;21.41;63.21;100961.72;5007680;28;20196;-71
2022/07/14 08:12:52;;;;;;;1.70;1.07;;;;;;;21.40;62.65;100962.66;5002121;28;20823;-71
2022/07/14 08:15:19;;;;;;;1.50;0.83;;;;;;;21.40;62.07;100952.03;4998606;28;20654;-71
2022/07/14 08:17:45;;;;;;;0.80;0.80;;;;;;;21.62;61.75;100962.94;4999451;28;20212;-72
2022/07/14 08:20:12;;;;;;;1.83;0.80;;;;;;;21.89;60.82;100967.34;5011481;28;20206;-72
2022/07/14 08:22:39;;;;;;;3.10;1.00;;;;;;;22.04;59.90;100960.09;5012593;28;20705;-72
2022/07/14 08:25:07;;;;;;;1.57;1.10;;;;;;;21.99;60.59;100957.78;5011103;28;20596;-72
2022/07/14 08:27:34;;;;;;;1.60;1.13;;;;;;;21.94;60.32;100954.59;5006153;28;20936;-72
2022/07/14 08:30:03;;;;;;;1.37;1.00;;;;;;;21.89;60.55;100959.38;5009533;28;20716;-72
2022/07/14 08:32:38;;;;;;;1.00;0.80;;;;;;;21.80;62.09;100955.53;5010609;28;20235;-72
2022/07/14 08:35:07;;;;;;;2.27;1.03;;;;;;;21.74;59.68;100961.28;5010273;28;20230;-72
2022/07/14 08:37:34;;;;;;;1.43;0.90;;;;;;;21.67;61.13;100952.00;5013101;28;20212;-72
2022/07/14 08:40:01;;;;;;;1.73;1.13;;;;;;;21.68;63.58;100943.09;5011753;28;20257;-73
2022/07/14 08:42:29;;;;;;;1.13;1.03;;;;;;;21.69;60.36;100948.31;5012288;28;20596;-72
2022/07/14 08:44:55;;;;;;;0.77;0.77;;;;;;;21.91;59.73;100944.19;5008266;28;20506;-71
2022/07/14 08:47:23;;;;;;;1.27;1.00;;;;;;;22.32;59.61;100948.44;5006606;28;20660;-72
2022/07/14 08:49:50;;;;;;;0.90;0.90;;;;;;;22.67;59.25;100947.72;5007939;28;20201;-71
2022/07/14 08:52:17;;;;;;;1.50;1.00;;;;;;;22.83;56.30;100944.81;5006858;28;20224;-72
2022/07/14 08:54:45;;;;;;;1.50;0.80;;;;;;;22.69;53.96;100944.03;5006753;28;20209;-72
2022/07/14 08:57:11;;;;;;;0.90;0.70;;;;;;;22.81;53.03;100939.63;5010814;28;20231;-72
2022/07/14 08:59:38;;;;;;;3.13;0.90;;;;;;;22.77;51.53;100938.13;5007092;28;20444;-72
2022/07/14 09:02:05;;;;;;;0.60;0.60;;;;;;;22.98;55.87;100930.41;5011726;28;20221;-72
2022/07/14 09:04:33;;;;;;;0.90;0.80;;;;;;;;;;5007018;28;20201;-71
2022/07/14 09:06:59;;;;;;;0.90;0.73;;;;;;;22.94;50.37;100926.28;5003548;28;20646;-71
2022/07/14 09:09:27;;;;;;;0.80;0.77;;;;;;;23.09;52.51;100918.16;5006743;28;20222;-72
2022/07/14 09:11:57;;;;;;;1.65;1.00;;;;;;;23.32;51.98;100913.78;5008231;28;20569;-71
2022/07/14 09:14:24;;;;;;;1.10;0.63;;;;;;;23.36;51.32;100916.09;5010413;28;20215;-72
2022/07/14 09:16:52;;;;;;;1.48;0.95;;;;;;;23.48;52.16;100910.81;5014167;28;20593;-71
2022/07/14 09:19:19;;;;;;;0.80;0.80;;;;;;;23.67;51.93;100903.09;5009117;28;20193;-72
2022/07/14 09:21:55;;;;;;;1.55;0.95;;;;;;;23.79;51.68;100907.47;5006686;28;20307;-71
2022/07/14 09:24:22;;;;;;;3.47;1.00;;;;;;;23.84;50.33;100904.50;5012908;28;20211;-72
2022/07/14 09:26:50;;;;;;;2.00;1.10;;;;;;;23.80;51.80;100908.34;5012989;28;20207;-71
2022/07/14 09:29:18;;;;;;;1.17;0.90;;;;;;;23.67;51.84;100908.44;5010128;28;20204;-71
2022/07/14 09:31:45;;;;;;;1.42;1.00;;;;;;;23.73;52.41;100899.16;5009269;28;20659;-71
2022/07/14 09:34:26;;;;;;;0.90;0.80;;;;;;;23.68;50.09;100907.47;5014618;28;20228;-71
2022/07/14 09:37:10;;;;;;;0.73;0.50;;;;;;;23.75;51.82;100891.88;5004023;28;20291;-72
2022/07/14 09:39:36;;;;;;;1.05;0.70;;;;;;;23.77;49.07;100903.25;5004614;28;20205;-71
2022/07/14 09:42:03;;;;;;;2.72;0.82;;;;;;;23.75;47.41;100897.22;4998189;28;20223;-71
2022/07/14 09:44:29;;;;;;;1.05;0.93;;;;;;;23.77;48.75;100901.44;5003309;28;20205;-71
2022/07/14 09:46:57;;;;;;;1.27;0.70;;;;;;;23.60;47.68;100897.41;5015549;28;20200;-71
2022/07/14 09:49:25;;;;;;;1.10;0.73;;;;;;;23.72;48.63;100892.94;5014737;28;20200;-71
2022/07/14 09:51:54;;;;;;;0.90;0.82;;;;;;;23.77;47.92;100896.09;5014595;28;20764;-71
2022/07/14 09:54:41;;;;;;;1.20;0.77;;;;;;;23.77;50.17;100890.78;5012613;28;20517;-71
2022/07/14 09:57:07;;;;;;;1.02;0.80;;;;;;;23.95;49.01;100890.34;5015899;28;20196;-71
2022/07/14 09:59:43;;;;;;;1.27;0.90;;;;;;;24.01;47.40;100895.22;5011388;28;20208;-71
2022/07/14 10:02:15;;;;;;;1.42;0.85;;;;;;;23.91;47.12;100888.91;5026957;22;20220;-74
2022/07/14 10:04:42;;;;;;;0.85;0.60;;;;;;;24.13;48.99;100891.56;5014641;28;20211;-76
2022/07/14 10:07:11;;;;;;;1.30;0.85;;;;;;;24.30;50.10;100886.72;5015458;28;20207;-75
2022/07/14 10:09:40;;;;;;;1.45;0.80;;;;;;;24.39;46.96;100900.13;5017346;28;20208;-75
2022/07/14 10:12:06;;;;;;;1.35;0.80;;;;;;;24.08;46.44;100892.88;5023063;28;20211;-76
2022/07/14 10:14:33;;;;;;;0.98;0.80;;;;;;;24.19;46.76;100884.91;5001554;28;20206;-75
2022/07/14 10:17:00;;;;;;;0.93;0.70;;;;;;;24.26;46.81;100890.59;5003019;28;20197;-76
2022/07/14 10:19:26;;;;;;;2.13;0.75;;;;;;;24.42;47.41;100882.22;4999054;28;20201;-76
2022/07/14 10:21:56;;;;;;;1.95;0.80;;;;;;;24.66;48.28;100858.94;5004754;28;20721;-75
2022/07/14 10:24:24;;;;;;;1.25;0.70;;;;;;;24.73;46.45;100868.13;5003996;28;20208;-76
2022/07/14 10:26:52;;;;;;;2.05;0.90;;;;;;;24.75;46.08;100865.34;4997308;28;20211;-76
2022/07/14 10:29:19;;;;;;;1.00;0.75;;;;;;;24.84;47.91;100863.75;4998433;28;20201;-75
2022/07/14 10:32:02;;;;;;;0.88;0.70;;;;;;;24.75;46.80;100865.34;4994728;28;20592;-75
2022/07/14 10:34:35;;;;;;;2.13;0.85;;;;;;;24.81;46.06;100858.66;5005283;28;20204;-76
2022/07/14 10:37:09;;;;;;;1.75;0.65;;;;;;;24.88;47.60;100850.00;4999994;28;20608;-75
2022/07/14 10:39:46;;;;;;;1.45;1.02;;;;;;;24.88;46.70;100843.84;5002562;28;20578;-75
2022/07/14 10:42:23;;;;;;;0.68;0.50;;;;;;;25.12;47.02;100851.59;5007325;28;20254;-75
2022/07/14 10:44:51;;;;;;;2.10;0.88;;;;;;;25.06;45.35;100860.94;4998890;28;20204;-75
2022/07/14 10:47:19;;;;;;;1.42;0.80;;;;;;;25.03;44.10;100850.56;4994492;28;20290;-75
2022/07/14 10:50:07;;;;;;;0.82;0.75;;;;;;;25.14;43.82;100861.16;5006912;28;20215;-75
2022/07/14 10:52:35;;;;;;;1.60;0.80;;;;;;;24.88;45.15;100857.16;5003550;28;20235;-75
2022/07/14 10:55:21;;;;;;;1.15;0.75;;;;;;;24.46;45.05;100862.34;5004003;28;20986;-75
2022/07/14 10:58:25;;;;;;;2.42;0.70;;;;;;;24.45;45.98;100853.50;5007527;28;20205;-75
2022/07/14 11:00:57;;;;;;;0.68;0.63;;;;;;;24.56;46.54;100850.84;4995682;28;20723;-75
2022/07/14 11:03:44;;;;;;;1.38;0.80;;;;;;;24.47;45.02;100848.06;4994644;28;20733;-75
2022/07/14 11:06:18;;;;;;;1.08;0.88;;;;;;;24.68;44.61;100841.00;5000684;28;20320;-75
2022/07/14 11:08:46;;;;;;;1.15;0.90;;;;;;;24.41;45.62;100837.88;4996962;28;20325;-75
2022/07/14 11:11:22;;;;;;;0.70;0.70;;;;;;;24.61;45.98;100834.47;4994419;28;20206;-76
2022/07/14 11:14:07;;;;;;;1.00;0.80;;;;;;;24.88;46.81;100825.16;4997362;28;20224;-75
2022/07/14 11:16:59;;;;;;;0.82;0.80;;;;;;;24.81;45.68;100829.31;4997945;28;20212;-75
2022/07/14 11:19:32;;;;;;;1.27;0.80;;;;;;;24.90;45.86;100834.72;5002288;28;20560;-75
2022/07/14 11:22:20;;;;;;;1.95;0.80;;;;;;;25.08;46.14;100821.69;5000070;28;20200;-75
2022/07/14 11:24:50;;;;;;;1.15;0.85;;;;;;;25.13;43.87;100816.81;4998172;28;20227;-75
2022/07/14 11:27:26;;;;;;;2.13;0.80;;;;;;;25.09;44.06;100820.69;5001270;28;20206;-75
2022/07/14 11:29:53;;;;;;;1.58;0.80;;;;;;;25.13;44.50;100810.59;5004315;28;20200;-75
2022/07/14 11:32:30;;;;;;;0.85;0.70;;;;;;;25.36;44.80;100806.00;5002230;28;20327;-75
2022/07/14 11:37:57;;;;;;;1.30;0.60;;;;;;;26.03;45.38;100795.78;4993639;28;20306;-75
2022/07/14 11:40:44;;;;;;;2.47;1.27;;;;;;;26.11;44.32;100795.94;4994347;28;20673;-75
2022/07/14 11:43:41;;;;;;;1.40;0.70;;;;;;;26.27;44.09;100795.41;4992517;28;20252;-75